Time;durP1;ratioP1;P1;durP2;ratioP2;P2;SDS_P1;SDS_P2;PMS_P1;PMS_P2;Temp;Humidity;BMP_temperature;BMP_pressure;BME280_temperature;BME280_humidity;BME280_pressure;Samples;Min_cycle;Max_cycle;Signal;HPM_P1;HPM_P2
2021/06/08 00:01:27;;;;;;;7.70;7.00;;;;;;;13.59;78.89;101400.50;4964818;28;20423;-77
2021/06/08 00:03:54;;;;;;;9.23;7.43;;;;;;;13.59;78.32;101404.03;4945669;28;20179;-77
2021/06/08 00:06:23;;;;;;;8.10;7.22;;;;;;;13.53;78.78;101401.50;4944589;28;20042;-76
2021/06/08 00:08:56;;;;;;;8.07;7.28;;;;;;;13.49;79.01;101399.81;4956409;28;20046;-76
2021/06/08 00:11:23;;;;;;;8.75;7.90;;;;;;;13.48;78.94;101398.06;4959302;28;20461;-78
2021/06/08 00:13:50;;;;;;;8.40;7.60;;;;;;;13.31;80.12;101397.53;4929360;28;20038;-77
2021/06/08 00:16:17;;;;;;;8.93;7.15;;;;;;;13.30;80.21;101401.97;4958980;28;20444;-77
2021/06/08 00:18:44;;;;;;;8.85;7.95;;;;;;;13.30;80.01;101404.63;4936826;28;20043;-78
2021/06/08 00:21:11;;;;;;;8.25;7.45;;;;;;;13.20;80.70;101406.59;5028363;23;20407;-81
2021/06/08 00:23:38;;;;;;;9.20;8.30;;;;;;;13.16;80.93;101401.34;4921738;29;20047;-79
2021/06/08 00:26:05;;;;;;;8.80;7.90;;;;;;;13.11;81.37;101404.06;4933335;29;20051;-78
2021/06/08 00:28:31;;;;;;;9.68;8.10;;;;;;;13.14;81.38;101397.84;4915123;29;20231;-79
2021/06/08 00:30:58;;;;;;;8.25;7.43;;;;;;;13.07;81.73;101398.84;4938676;28;20123;-79
2021/06/08 00:33:25;;;;;;;8.95;8.05;;;;;;;13.06;81.75;101405.06;4917342;28;20046;-79
2021/06/08 00:35:52;;;;;;;9.73;8.27;;;;;;;13.00;81.85;101403.41;4943578;29;20035;-79
2021/06/08 00:38:18;;;;;;;8.27;7.47;;;;;;;13.02;82.12;101400.72;4941100;29;20078;-78
2021/06/08 00:40:46;;;;;;;9.25;8.20;;;;;;;13.00;81.76;101405.19;4942943;29;20107;-78
2021/06/08 00:43:13;;;;;;;9.38;8.25;;;;;;;12.94;82.33;101408.81;4932336;29;20055;-78
2021/06/08 00:45:39;;;;;;;8.52;7.57;;;;;;;12.83;82.67;101395.75;4933320;29;20134;-79
2021/06/08 00:48:06;;;;;;;9.25;8.13;;;;;;;12.75;83.07;101407.41;4955818;28;20038;-79
2021/06/08 00:50:34;;;;;;;9.32;8.32;;;;;;;12.77;82.84;101413.53;4942256;28;20599;-78
2021/06/08 00:53:01;;;;;;;8.68;7.78;;;;;;;12.74;82.51;101410.94;4935683;29;20039;-79
2021/06/08 00:55:28;;;;;;;8.60;7.70;;;;;;;12.66;82.81;101411.09;4948001;29;20051;-80
2021/06/08 00:57:55;;;;;;;9.00;7.72;;;;;;;12.58;83.24;101408.56;4925531;29;20050;-78
2021/06/08 01:00:21;;;;;;;9.10;8.15;;;;;;;12.51;83.50;101403.38;4927849;28;20043;-78
2021/06/08 01:02:49;;;;;;;10.40;8.25;;;;;;;12.53;83.50;101406.91;4915227;29;20051;-80
2021/06/08 01:05:16;;;;;;;9.55;8.63;;;;;;;12.51;83.66;101414.84;4953511;28;20122;-79
2021/06/08 01:07:43;;;;;;;9.82;8.82;;;;;;;12.42;83.51;101404.41;4930226;29;20136;-79
2021/06/08 01:10:11;;;;;;;8.40;7.55;;;;;;;12.43;83.54;101415.88;4937756;28;20098;-79
2021/06/08 01:12:38;;;;;;;10.23;8.30;;;;;;;12.40;83.55;101411.50;4932893;29;20047;-79
2021/06/08 01:15:06;;;;;;;9.65;8.20;;;;;;;12.29;83.61;101416.13;4907015;29;20576;-79
2021/06/08 01:17:32;;;;;;;10.25;9.18;;;;;;;12.21;84.05;101416.22;4939136;28;20036;-78
2021/06/08 01:20:00;;;;;;;10.25;8.65;;;;;;;12.25;84.37;101412.63;4925359;29;20047;-79
2021/06/08 01:22:28;;;;;;;11.18;8.50;;;;;;;12.19;84.05;101418.03;4937414;28;20602;-79
2021/06/08 01:24:55;;;;;;;10.68;9.52;;;;;;;12.15;84.22;101412.78;4929852;28;20464;-79
2021/06/08 01:27:22;;;;;;;9.57;8.55;;;;;;;12.06;84.20;101404.09;4948681;28;20035;-79
2021/06/08 01:29:51;;;;;;;11.73;9.20;;;;;;;12.04;84.55;101405.88;4937461;29;20497;-79
2021/06/08 01:32:24;;;;;;;10.00;8.90;;;;;;;11.99;84.72;101404.19;4929588;29;20036;-79
2021/06/08 01:34:53;;;;;;;11.35;9.35;;;;;;;12.00;84.84;101406.81;4927040;29;20048;-79
2021/06/08 01:37:20;;;;;;;15.35;9.82;;;;;;;11.97;84.96;101406.00;4931845;29;20043;-78
2021/06/08 01:39:47;;;;;;;9.40;8.48;;;;;;;11.91;85.41;101406.94;4921534;29;20173;-78
2021/06/08 01:42:14;;;;;;;10.35;9.27;;;;;;;11.81;85.50;101406.19;4927909;29;20394;-79
2021/06/08 01:44:42;;;;;;;9.88;8.48;;;;;;;11.88;85.59;101411.41;4945013;28;20043;-78
2021/06/08 01:47:10;;;;;;;9.30;8.35;;;;;;;11.86;85.70;101402.63;4939753;28;20054;-79
2021/06/08 01:49:37;;;;;;;12.27;10.40;;;;;;;11.76;85.56;101407.13;4939174;29;20043;-79
2021/06/08 01:52:18;;;;;;;11.73;9.73;;;;;;;11.84;86.09;101410.56;4934358;28;20051;-79
2021/06/08 01:54:54;;;;;;;11.80;9.80;;;;;;;11.77;85.89;101401.81;4943630;29;20063;-79
2021/06/08 01:57:31;;;;;;;11.27;10.07;;;;;;;11.64;86.84;101397.56;4945305;28;20098;-79
2021/06/08 02:00:17;;;;;;;11.45;9.80;;;;;;;11.77;86.17;101399.19;4934950;29;20182;-80
2021/06/08 02:02:58;;;;;;;10.57;9.57;;;;;;;11.64;87.09;101405.53;4926771;29;20065;-79
2021/06/08 02:05:27;;;;;;;11.93;10.30;;;;;;;11.60;87.68;101394.97;4939543;28;20059;-79
2021/06/08 02:07:59;;;;;;;10.07;9.00;;;;;;;11.54;87.96;101399.47;4928764;29;20568;-78
2021/06/08 02:10:41;;;;;;;10.85;9.10;;;;;;;11.55;87.57;101398.56;4919038;29;20106;-78
2021/06/08 02:13:18;;;;;;;11.18;9.00;;;;;;;11.62;87.47;101395.84;4940497;28;20073;-79
2021/06/08 02:15:56;;;;;;;12.10;9.40;;;;;;;11.62;87.33;101398.50;4915016;29;21738;-79
2021/06/08 02:18:25;;;;;;;12.57;9.05;;;;;;;11.60;87.90;101401.16;4938352;28;20043;-79
2021/06/08 02:20:52;;;;;;;14.40;9.73;;;;;;;11.57;88.12;101403.84;4940732;28;20047;-79
2021/06/08 02:23:21;;;;;;;14.68;10.23;;;;;;;11.55;88.22;101408.28;4924314;28;20114;-79
2021/06/08 02:25:50;;;;;;;10.43;9.25;;;;;;;11.52;88.54;101403.03;4936926;28;20055;-79
2021/06/08 02:28:17;;;;;;;11.35;9.70;;;;;;;11.48;88.85;101411.91;4922142;29;20073;-78
2021/06/08 02:30:46;;;;;;;11.55;10.35;;;;;;;11.50;88.19;101404.81;4921428;29;20133;-79
2021/06/08 02:33:14;;;;;;;10.60;9.50;;;;;;;11.49;88.86;101405.72;4922372;29;20035;-79
2021/06/08 02:35:41;;;;;;;11.63;9.30;;;;;;;11.36;89.42;101412.94;4917941;29;20066;-76
2021/06/08 02:38:08;;;;;;;11.75;10.55;;;;;;;11.46;89.31;101411.03;4928263;29;20051;-79
2021/06/08 02:40:35;;;;;;;13.45;10.50;;;;;;;11.42;89.79;101417.25;4924603;28;20044;-79
2021/06/08 02:43:02;;;;;;;12.57;10.27;;;;;;;11.31;90.33;101413.88;4937943;29;20216;-80
2021/06/08 02:45:29;;;;;;;10.65;9.57;;;;;;;11.27;90.35;101410.41;4932225;28;20534;-80
2021/06/08 02:47:59;;;;;;;11.68;10.23;;;;;;;11.23;90.60;101417.47;4932333;29;20594;-79
2021/06/08 02:50:27;;;;;;;11.52;10.10;;;;;;;11.28;90.22;101420.94;4921714;29;20044;-79
2021/06/08 02:52:54;;;;;;;11.90;10.68;;;;;;;11.33;90.25;101420.00;4930583;29;20584;-78
2021/06/08 02:55:22;;;;;;;11.68;10.07;;;;;;;11.35;90.67;101420.84;4942174;29;20055;-79
2021/06/08 02:57:51;;;;;;;10.68;9.48;;;;;;;11.33;90.17;101425.31;4929491;29;20047;-79
2021/06/08 03:00:19;;;;;;;10.75;9.65;;;;;;;11.39;90.52;101428.75;4930047;28;20055;-78
2021/06/08 03:02:47;;;;;;;12.35;9.75;;;;;;;11.36;90.64;101428.81;4921855;29;20739;-79
2021/06/08 03:05:33;;;;;;;11.32;9.68;;;;;;;11.31;91.49;101429.75;4935087;28;20062;-79
2021/06/08 03:08:03;;;;;;;11.30;9.65;;;;;;;11.32;90.91;101428.84;4929840;29;20402;-80
2021/06/08 03:10:33;;;;;;;10.07;9.00;;;;;;;11.32;91.68;101423.56;4933290;29;20600;-79
2021/06/08 03:13:01;;;;;;;11.18;9.80;;;;;;;11.28;91.86;101431.53;4922577;29;20086;-79
2021/06/08 03:15:30;;;;;;;11.05;9.57;;;;;;;11.39;91.55;101433.19;4927262;29;20047;-78
2021/06/08 03:17:57;;;;;;;10.63;9.52;;;;;;;11.39;92.04;101435.81;4929343;29;20500;-79
2021/06/08 03:20:35;;;;;;;11.30;9.85;;;;;;;11.38;92.16;101431.44;4926382;29;20047;-78
2021/06/08 03:23:05;;;;;;;11.30;10.15;;;;;;;11.40;92.95;101433.16;4935760;29;20469;-78
2021/06/08 03:25:33;;;;;;;11.98;10.00;;;;;;;11.47;92.53;101433.97;4933483;28;20048;-79
2021/06/08 03:28:00;;;;;;;11.30;10.18;;;;;;;11.53;93.11;101428.59;4936367;29;20039;-79
2021/06/08 03:30:28;;;;;;;11.45;10.23;;;;;;;11.60;93.55;101432.91;4931054;29;20101;-79
2021/06/08 03:32:55;;;;;;;11.63;10.35;;;;;;;11.66;93.09;101429.31;4939045;28;20083;-78
2021/06/08 03:35:23;;;;;;;11.70;10.50;;;;;;;11.75;92.96;101427.41;4930016;29;20055;-78
2021/06/08 03:37:51;;;;;;;11.35;10.15;;;;;;;11.78;92.62;101430.03;4934182;29;20071;-79
2021/06/08 03:40:20;;;;;;;10.93;9.88;;;;;;;11.90;93.24;101428.16;4945168;28;20047;-79
2021/06/08 03:42:48;;;;;;;13.05;10.18;;;;;;;11.99;93.17;101428.91;4929749;29;20056;-78
2021/06/08 03:45:16;;;;;;;11.27;10.18;;;;;;;12.09;92.74;101432.28;4940219;29;20072;-77
2021/06/08 03:47:44;;;;;;;11.68;10.48;;;;;;;12.14;93.27;101430.47;4943873;29;20099;-78
2021/06/08 03:50:14;;;;;;;10.38;9.35;;;;;;;12.23;93.49;101435.63;4915937;29;20079;-77
2021/06/08 03:52:50;;;;;;;12.90;10.32;;;;;;;12.25;93.98;101430.28;4928325;29;20288;-78
2021/06/08 03:55:25;;;;;;;10.93;9.60;;;;;;;12.34;93.44;101431.03;4952968;28;20403;-78
2021/06/08 03:57:54;;;;;;;10.32;9.20;;;;;;;12.39;93.70;101428.31;4923533;28;20039;-79
2021/06/08 04:00:23;;;;;;;11.95;9.88;;;;;;;12.53;93.27;101433.41;4925838;29;20051;-79
2021/06/08 04:02:49;;;;;;;10.65;9.57;;;;;;;12.57;94.55;101430.66;4946876;29;20095;-79
2021/06/08 04:05:17;;;;;;;10.32;9.23;;;;;;;12.60;94.80;101433.25;4932075;29;20048;-79
2021/06/08 04:07:46;;;;;;;10.88;9.77;;;;;;;12.74;94.47;101437.47;4930781;29;20050;-79
2021/06/08 04:10:17;;;;;;;10.57;9.48;;;;;;;12.79;94.71;101435.63;4935337;29;20070;-79
2021/06/08 04:12:44;;;;;;;10.30;9.23;;;;;;;12.88;94.22;101439.00;4917757;29;20102;-78
2021/06/08 04:15:11;;;;;;;12.95;10.00;;;;;;;12.96;92.91;101429.13;4938506;28;20051;-78
2021/06/08 04:17:38;;;;;;;12.30;10.65;;;;;;;13.11;92.51;101437.69;4938431;29;20062;-79
2021/06/08 04:20:07;;;;;;;10.48;9.38;;;;;;;13.17;92.15;101435.78;4927893;29;20081;-78
2021/06/08 04:22:35;;;;;;;11.40;9.82;;;;;;;13.24;92.14;101440.13;4921035;29;20099;-80
2021/06/08 04:25:04;;;;;;;10.20;9.20;;;;;;;13.34;91.73;101439.94;4940214;29;20095;-78
2021/06/08 04:27:34;;;;;;;11.43;10.23;;;;;;;13.60;91.19;101440.28;4933499;28;20071;-78
2021/06/08 04:30:08;;;;;;;11.55;10.35;;;;;;;13.72;90.75;101434.75;4919714;29;20036;-78
2021/06/08 04:32:43;;;;;;;11.60;10.40;;;;;;;13.86;89.62;101434.44;4937222;28;20457;-79
2021/06/08 04:35:10;;;;;;;10.18;9.18;;;;;;;14.01;88.92;101430.56;4920541;29;20065;-79
2021/06/08 04:37:38;;;;;;;10.90;9.80;;;;;;;14.09;88.68;101437.44;4942327;28;20047;-79
2021/06/08 04:40:08;;;;;;;11.35;10.15;;;;;;;14.30;89.37;101437.88;4938142;28;20176;-80
2021/06/08 04:42:41;;;;;;;11.32;10.23;;;;;;;14.54;87.74;101433.78;4925350;29;20062;-78
2021/06/08 04:45:08;;;;;;;11.15;10.05;;;;;;;14.58;87.72;101444.31;4932349;29;20044;-78
2021/06/08 04:47:36;;;;;;;11.05;9.90;;;;;;;14.70;87.52;101443.13;4929178;29;20047;-79
2021/06/08 04:50:03;;;;;;;11.20;10.07;;;;;;;14.86;87.97;101439.16;4925516;29;20517;-80
2021/06/08 04:52:29;;;;;;;13.13;10.20;;;;;;;15.02;88.79;101442.31;4921420;29;20516;-81
2021/06/08 04:54:59;;;;;;;11.52;10.32;;;;;;;15.06;88.91;101443.97;4932888;29;20047;-81
2021/06/08 04:57:25;;;;;;;11.77;10.32;;;;;;;15.15;88.95;101445.53;4929301;29;20493;-79
2021/06/08 05:00:06;;;;;;;9.80;8.77;;;;;;;15.24;88.31;101450.59;4943921;28;20051;-80
2021/06/08 05:02:45;;;;;;;13.70;11.10;;;;;;;15.29;88.01;101440.69;4930362;29;20083;-79
2021/06/08 05:05:16;;;;;;;10.45;9.45;;;;;;;15.38;87.99;101439.56;4949316;28;20090;-79
2021/06/08 05:07:51;;;;;;;11.00;9.90;;;;;;;15.44;87.93;101444.72;4933660;28;20091;-79
2021/06/08 05:10:19;;;;;;;12.02;10.57;;;;;;;15.45;88.66;101446.47;4920868;29;20706;-79
2021/06/08 05:12:45;;;;;;;11.00;9.90;;;;;;;15.65;88.62;101452.13;4948041;28;20047;-79
2021/06/08 05:15:15;;;;;;;11.23;10.02;;;;;;;16.04;87.13;101446.53;4930828;29;20051;-79
2021/06/08 05:17:43;;;;;;;11.20;9.40;;;;;;;16.50;85.25;101445.09;4935221;29;20044;-79
2021/06/08 05:20:14;;;;;;;10.75;9.63;;;;;;;16.68;84.27;101448.94;4936754;29;20051;-78
2021/06/08 05:22:41;;;;;;;10.88;9.77;;;;;;;16.87;83.86;101460.78;4922732;29;20563;-78
2021/06/08 05:25:09;;;;;;;11.50;9.55;;;;;;;17.02;81.77;101457.59;4938730;29;20047;-78
2021/06/08 05:27:37;;;;;;;10.05;8.98;;;;;;;17.09;82.00;101456.47;4938189;29;20044;-79
2021/06/08 05:30:04;;;;;;;10.85;9.15;;;;;;;17.17;80.95;101448.19;4933470;29;20055;-77
2021/06/08 05:32:31;;;;;;;9.70;8.80;;;;;;;17.19;81.18;101456.13;4924306;29;20043;-78
2021/06/08 05:34:57;;;;;;;10.07;9.07;;;;;;;17.18;81.42;101460.59;4941978;29;20070;-78
2021/06/08 05:37:24;;;;;;;10.32;8.57;;;;;;;17.14;82.15;101454.47;4923007;29;20043;-79
2021/06/08 05:39:51;;;;;;;18.15;8.57;;;;;;;17.17;81.67;101456.19;4935382;29;20036;-79
2021/06/08 05:42:19;;;;;;;15.75;9.57;;;;;;;17.21;81.09;101452.47;4938776;28;20540;-78
2021/06/08 05:44:47;;;;;;;14.65;9.10;;;;;;;17.29;81.95;101455.75;4941787;28;20575;-79
2021/06/08 05:47:13;;;;;;;14.02;9.10;;;;;;;17.39;81.81;101454.47;4939459;28;20050;-78
2021/06/08 05:49:40;;;;;;;11.25;8.65;;;;;;;17.37;81.27;101458.16;4932359;28;20039;-78
2021/06/08 05:52:09;;;;;;;9.55;8.55;;;;;;;17.44;81.73;101465.88;4948076;28;20097;-78
2021/06/08 05:54:36;;;;;;;10.60;7.82;;;;;;;17.61;80.60;101469.75;4931807;29;20048;-78
2021/06/08 05:57:03;;;;;;;9.45;8.25;;;;;;;17.70;80.38;101472.97;4947738;28;20062;-79
2021/06/08 05:59:30;;;;;;;9.27;8.30;;;;;;;17.88;80.02;101463.41;4947647;29;20043;-78
2021/06/08 06:01:57;;;;;;;8.75;7.35;;;;;;;18.04;79.96;101463.69;4949949;28;20114;-78
2021/06/08 06:04:25;;;;;;;10.38;8.57;;;;;;;18.15;78.59;101473.94;4938803;29;20051;-79
2021/06/08 06:06:52;;;;;;;8.35;7.45;;;;;;;18.35;76.87;101466.03;4934625;28;20079;-79
2021/06/08 06:09:22;;;;;;;9.60;8.70;;;;;;;18.68;76.00;101476.34;4920999;29;20047;-77
2021/06/08 06:11:52;;;;;;;9.68;8.38;;;;;;;19.13;74.46;101474.41;4932448;28;20074;-80
2021/06/08 06:14:23;;;;;;;9.88;8.88;;;;;;;19.53;74.62;101478.00;4910420;29;20052;-78
2021/06/08 06:16:53;;;;;;;9.07;8.18;;;;;;;19.90;70.47;101474.53;4939456;29;20130;-79
2021/06/08 06:19:27;;;;;;;8.68;7.88;;;;;;;20.18;71.17;101466.09;4932521;29;20091;-78
2021/06/08 06:21:54;;;;;;;8.88;8.02;;;;;;;20.21;69.13;101476.66;4937267;28;20102;-79
2021/06/08 06:24:21;;;;;;;9.30;8.40;;;;;;;20.49;67.57;101462.81;4945790;28;20044;-78
2021/06/08 06:26:48;;;;;;;10.02;9.02;;;;;;;20.49;68.03;101467.31;4946911;28;20508;-78
2021/06/08 06:29:15;;;;;;;9.07;8.13;;;;;;;20.97;66.92;101466.69;4946358;28;20393;-78
2021/06/08 06:31:48;;;;;;;8.85;7.95;;;;;;;21.29;66.86;101465.06;4934066;29;20106;-79
2021/06/08 06:34:21;;;;;;;8.35;7.55;;;;;;;21.39;64.70;101465.44;4941653;28;20499;-77
2021/06/08 06:36:48;;;;;;;8.60;7.78;;;;;;;21.70;65.80;101477.25;4929566;29;20676;-79
2021/06/08 06:39:20;;;;;;;8.88;7.97;;;;;;;21.85;64.33;101471.03;4953798;28;20485;-78
2021/06/08 06:41:49;;;;;;;8.20;7.40;;;;;;;22.11;62.87;101469.63;4928510;29;20564;-78
2021/06/08 06:44:20;;;;;;;14.27;8.27;;;;;;;22.19;62.20;101470.06;4946453;28;20047;-79
2021/06/08 06:46:47;;;;;;;8.60;7.82;;;;;;;22.40;63.62;101465.28;4930620;29;20091;-80
2021/06/08 06:49:14;;;;;;;8.10;7.35;;;;;;;22.65;62.41;101464.75;4932147;28;20055;-80
2021/06/08 06:51:45;;;;;;;9.80;7.80;;;;;;;22.88;61.48;101476.91;4934547;29;20043;-81
2021/06/08 06:54:12;;;;;;;8.20;7.35;;;;;;;22.92;59.86;101475.75;4935438;28;20062;-77
2021/06/08 06:56:40;;;;;;;8.20;7.38;;;;;;;22.68;59.30;101470.81;4944740;28;20093;-78
2021/06/08 06:59:07;;;;;;;7.50;6.80;;;;;;;22.81;60.27;101479.06;4949139;28;20051;-79
2021/06/08 07:01:34;;;;;;;7.13;6.53;;;;;;;22.79;59.99;101478.28;4941807;29;20035;-76
2021/06/08 07:04:01;;;;;;;7.82;7.13;;;;;;;22.66;58.91;101475.44;4954079;28;20091;-80
2021/06/08 07:06:29;;;;;;;8.00;7.30;;;;;;;22.88;58.84;101480.47;4929076;29;20087;-78
2021/06/08 07:08:57;;;;;;;7.20;6.50;;;;;;;23.17;59.32;101465.25;4946904;28;20094;-77
2021/06/08 07:11:25;;;;;;;7.75;6.95;;;;;;;23.35;58.74;101482.13;4926113;29;20092;-77
2021/06/08 07:13:52;;;;;;;7.68;6.90;;;;;;;23.57;57.16;101474.47;4927708;28;20634;-79
2021/06/08 07:16:20;;;;;;;6.82;6.13;;;;;;;23.58;56.74;101476.22;4935553;29;20071;-78
2021/06/08 07:18:48;;;;;;;7.45;6.75;;;;;;;23.53;57.29;101474.75;4942618;28;20102;-79
2021/06/08 07:21:16;;;;;;;7.05;6.45;;;;;;;23.89;55.96;101479.72;4939696;28;20050;-77
2021/06/08 07:23:45;;;;;;;8.20;6.32;;;;;;;23.99;54.80;101472.78;4931805;29;20567;-77
2021/06/08 07:26:14;;;;;;;291.75;37.05;;;;;;;24.04;54.70;101478.72;4948908;28;20045;-78
2021/06/08 07:28:40;;;;;;;22.98;8.10;;;;;;;23.79;53.99;101474.00;4951226;28;20094;-81
2021/06/08 07:31:08;;;;;;;7.22;6.05;;;;;;;24.12;53.30;101481.81;4933142;29;20083;-79
2021/06/08 07:33:48;;;;;;;21.80;8.50;;;;;;;24.26;54.81;101474.66;4948564;28;20528;-78
2021/06/08 07:36:20;;;;;;;6.88;6.28;;;;;;;24.48;51.82;101480.44;4936154;28;20062;-79
2021/06/08 07:38:52;;;;;;;9.93;6.15;;;;;;;24.65;50.90;101477.50;4939610;29;20047;-78
2021/06/08 07:41:28;;;;;;;6.03;5.45;;;;;;;24.85;51.13;101469.88;4952226;28;20043;-79
2021/06/08 07:44:00;;;;;;;6.28;5.53;;;;;;;24.87;48.55;101478.72;4940677;28;20049;-78
2021/06/08 07:46:29;;;;;;;6.47;5.85;;;;;;;24.84;48.95;101468.16;4946082;28;20457;-79
2021/06/08 07:48:57;;;;;;;6.25;5.75;;;;;;;25.02;48.56;101475.00;4918855;29;20053;-78
2021/06/08 07:51:25;;;;;;;5.85;4.85;;;;;;;25.07;47.83;101470.19;4939638;28;20052;-79
2021/06/08 07:53:52;;;;;;;5.40;4.90;;;;;;;24.92;48.09;101469.34;4952020;28;20035;-79
2021/06/08 07:56:20;;;;;;;5.22;4.35;;;;;;;25.20;49.36;101471.06;4941537;29;20544;-77
2021/06/08 07:58:46;;;;;;;5.20;4.68;;;;;;;25.12;46.53;101468.00;4941449;28;20062;-81
2021/06/08 08:01:14;;;;;;;5.55;5.05;;;;;;;25.00;45.19;101466.13;4926706;29;20531;-79
2021/06/08 08:03:41;;;;;;;5.68;5.10;;;;;;;25.22;47.72;101468.25;4915421;28;20067;-80
2021/06/08 08:06:11;;;;;;;5.43;4.93;;;;;;;25.01;46.25;101469.69;4938625;28;20552;-79
2021/06/08 08:08:39;;;;;;;6.10;4.53;;;;;;;25.36;46.69;101475.41;4947415;28;20054;-79
2021/06/08 08:11:17;;;;;;;6.20;4.70;;;;;;;25.63;45.95;101472.59;4925391;29;20501;-78
2021/06/08 08:13:46;;;;;;;5.10;4.70;;;;;;;25.75;45.08;101482.63;5021939;23;20047;-76
2021/06/08 08:16:14;;;;;;;5.40;4.90;;;;;;;25.94;45.05;101477.59;4931161;29;20571;-77
2021/06/08 08:18:42;;;;;;;6.00;5.20;;;;;;;26.12;45.58;101478.09;4946484;28;20098;-77
2021/06/08 08:21:13;;;;;;;5.30;4.80;;;;;;;25.71;44.85;101475.66;4949234;28;20075;-77
2021/06/08 08:23:41;;;;;;;5.60;5.20;;;;;;;25.67;44.57;101472.28;4963065;28;20035;-77
2021/06/08 08:26:09;;;;;;;7.97;5.53;;;;;;;25.52;43.53;101476.94;4942442;28;20043;-77
2021/06/08 08:28:38;;;;;;;57.13;11.25;;;;;;;25.45;45.35;101470.22;4964326;28;20075;-78
2021/06/08 08:31:07;;;;;;;8.15;5.20;;;;;;;25.65;45.23;101476.09;4946362;29;20054;-77
2021/06/08 08:33:34;;;;;;;5.68;5.10;;;;;;;25.51;43.84;101482.47;4933883;29;20070;-77
2021/06/08 08:36:02;;;;;;;5.97;4.75;;;;;;;25.45;44.23;101478.34;4913518;29;20043;-76
2021/06/08 08:38:29;;;;;;;17.35;7.78;;;;;;;25.63;45.19;101478.88;4932613;29;20047;-77
2021/06/08 08:41:00;;;;;;;6.40;5.68;;;;;;;25.58;45.33;101472.94;4948518;29;20568;-76
2021/06/08 08:43:47;;;;;;;6.20;5.22;;;;;;;25.67;45.73;101471.44;4952369;29;20043;-77
2021/06/08 08:46:15;;;;;;;6.13;5.60;;;;;;;25.34;44.98;101477.38;4948591;28;20043;-76
2021/06/08 08:48:43;;;;;;;6.03;5.43;;;;;;;25.47;46.30;101473.69;4950647;29;20086;-77
2021/06/08 08:51:15;;;;;;;5.53;5.03;;;;;;;25.55;44.68;101465.03;4949947;28;20039;-77
2021/06/08 08:53:45;;;;;;;7.88;5.57;;;;;;;25.65;46.82;101466.13;4935384;29;20046;-77
2021/06/08 08:56:27;;;;;;;5.80;5.15;;;;;;;25.89;44.54;101465.38;4951661;28;20039;-77
2021/06/08 08:58:54;;;;;;;5.28;4.63;;;;;;;26.20;41.62;101466.72;4926095;29;20036;-76
2021/06/08 09:01:21;;;;;;;15.98;5.40;;;;;;;26.51;43.03;101476.19;4933361;29;20075;-77
2021/06/08 09:03:48;;;;;;;5.28;4.70;;;;;;;26.72;41.89;101466.44;4947129;29;20035;-77
2021/06/08 09:06:16;;;;;;;4.75;4.35;;;;;;;26.82;42.85;101469.31;4947743;28;20057;-78
2021/06/08 09:08:43;;;;;;;5.97;4.80;;;;;;;26.89;39.61;101471.44;4928802;29;20078;-77
2021/06/08 09:11:11;;;;;;;5.18;4.68;;;;;;;26.88;39.56;101468.84;4955437;28;20050;-76
2021/06/08 09:13:39;;;;;;;37.00;7.88;;;;;;;26.09;41.11;101475.63;4935971;29;20027;-77
2021/06/08 09:16:10;;;;;;;23.95;6.78;;;;;;;26.23;42.32;101474.59;4949852;28;20098;-76
2021/06/08 09:18:37;;;;;;;6.07;5.15;;;;;;;26.52;43.87;101477.91;4943543;29;20047;-76
2021/06/08 09:21:16;;;;;;;4.95;4.55;;;;;;;26.07;41.40;101478.47;4965758;28;20051;-76
2021/06/08 09:23:43;;;;;;;5.60;5.10;;;;;;;26.16;41.72;101479.63;4954011;28;20098;-77
2021/06/08 09:26:11;;;;;;;5.15;4.60;;;;;;;26.38;40.53;101473.50;4947855;28;20098;-78
2021/06/08 09:28:38;;;;;;;4.90;4.43;;;;;;;26.37;41.04;101474.47;4933934;29;20110;-77
2021/06/08 09:31:14;;;;;;;6.47;4.63;;;;;;;26.38;40.35;101468.09;4950331;28;20725;-77
2021/06/08 09:33:46;;;;;;;5.22;4.72;;;;;;;26.22;40.31;101475.59;4952389;28;20091;-78
2021/06/08 09:36:15;;;;;;;5.97;4.70;;;;;;;26.58;40.09;101469.34;4945643;29;20031;-77
2021/06/08 09:38:58;;;;;;;5.43;4.45;;;;;;;26.46;38.63;101475.66;4933329;29;20043;-76
2021/06/08 09:41:31;;;;;;;5.10;4.60;;;;;;;26.75;39.41;101463.50;4931930;28;20050;-77
2021/06/08 09:44:05;;;;;;;7.10;4.60;;;;;;;27.03;39.31;101469.53;4915573;29;20043;-76
2021/06/08 09:46:54;;;;;;;6.45;4.95;;;;;;;26.57;37.29;101473.91;4961040;28;20032;-77
2021/06/08 09:49:30;;;;;;;4.55;4.15;;;;;;;27.28;36.84;101471.25;4929529;29;20048;-76
2021/06/08 09:52:07;;;;;;;4.57;4.18;;;;;;;27.28;35.47;101471.25;4950250;28;20508;-76
2021/06/08 09:54:38;;;;;;;4.68;4.28;;;;;;;27.16;36.24;101457.66;4949404;28;20035;-77
2021/06/08 09:57:14;;;;;;;5.85;4.15;;;;;;;26.78;38.08;101465.97;4957185;28;20040;-76
2021/06/08 09:59:50;;;;;;;5.45;4.78;;;;;;;26.89;38.80;101465.16;4949411;28;20407;-77
2021/06/08 10:02:27;;;;;;;5.25;4.75;;;;;;;27.14;39.84;101461.47;4957934;28;20075;-77
2021/06/08 10:05:13;;;;;;;4.85;4.22;;;;;;;27.39;38.77;101454.97;4949145;28;20062;-76
2021/06/08 10:07:40;;;;;;;4.22;3.83;;;;;;;27.67;37.66;101454.56;4955612;28;20047;-77
2021/06/08 10:10:15;;;;;;;5.28;4.78;;;;;;;28.04;37.48;101452.44;4948095;29;20081;-77
2021/06/08 10:13:02;;;;;;;5.65;4.60;;;;;;;27.66;36.12;101463.72;4931217;28;20047;-77
2021/06/08 10:15:35;;;;;;;5.72;5.10;;;;;;;27.51;36.58;101451.31;4947565;29;20043;-77
2021/06/08 10:18:05;;;;;;;6.37;4.90;;;;;;;27.32;37.24;101451.88;4948888;28;20043;-76
2021/06/08 10:20:39;;;;;;;4.50;4.10;;;;;;;27.38;38.23;101454.13;4929842;29;20075;-77
2021/06/08 10:23:27;;;;;;;5.93;5.10;;;;;;;27.30;37.56;101453.00;4962518;28;20058;-79
2021/06/08 10:25:56;;;;;;;5.60;4.80;;;;;;;27.10;39.89;101451.84;4930443;28;20048;-78
2021/06/08 10:28:24;;;;;;;5.82;4.57;;;;;;;26.87;37.60;101457.16;4934336;29;20048;-78
2021/06/08 10:30:51;;;;;;;5.25;4.85;;;;;;;26.73;38.44;101462.75;4947931;29;20047;-77
2021/06/08 10:33:38;;;;;;;7.32;4.82;;;;;;;26.65;39.10;101454.31;4957444;28;20110;-77
2021/06/08 10:36:13;;;;;;;6.78;4.95;;;;;;;26.75;39.44;101459.94;4946636;28;20048;-77
2021/06/08 10:38:40;;;;;;;5.18;4.68;;;;;;;26.96;38.36;101454.72;4947501;29;20397;-78
2021/06/08 10:41:06;;;;;;;5.00;4.47;;;;;;;26.77;37.98;101456.13;4930056;29;20100;-76
2021/06/08 10:43:36;;;;;;;4.80;4.40;;;;;;;26.68;36.91;101451.41;4929327;28;20035;-75
2021/06/08 10:46:03;;;;;;;5.05;4.55;;;;;;;26.46;37.26;101462.97;4932751;29;20433;-78
2021/06/08 10:48:37;;;;;;;5.15;4.40;;;;;;;26.53;37.42;101457.97;4954012;28;20049;-76
2021/06/08 10:51:12;;;;;;;4.80;4.40;;;;;;;26.53;38.59;101455.25;4953821;28;20043;-77
2021/06/08 10:53:46;;;;;;;5.40;4.88;;;;;;;26.65;39.94;101454.31;4950154;28;20040;-77
2021/06/08 10:56:30;;;;;;;40.13;8.68;;;;;;;26.68;39.02;101456.81;4937717;29;20047;-76
2021/06/08 10:59:00;;;;;;;5.15;4.53;;;;;;;26.77;38.15;101449.84;4935033;29;20142;-77
2021/06/08 11:01:30;;;;;;;5.10;4.60;;;;;;;26.52;37.87;101462.53;4945873;29;20086;-77
2021/06/08 11:03:59;;;;;;;5.20;4.70;;;;;;;26.47;39.37;101459.28;4966315;28;20063;-77
2021/06/08 11:06:38;;;;;;;5.00;4.60;;;;;;;26.30;38.41;101446.97;4950028;28;20730;-78
2021/06/08 11:09:11;;;;;;;6.05;4.97;;;;;;;26.23;39.35;101452.94;4963112;28;20047;-77
2021/06/08 11:12:01;;;;;;;5.03;4.53;;;;;;;26.31;39.93;101454.09;4944758;28;20563;-77
2021/06/08 11:17:11;;;;;;;5.15;4.68;;;;;;;26.11;38.13;101449.28;4938605;28;20855;-76
2021/06/08 11:19:44;;;;;;;5.55;4.57;;;;;;;25.87;39.32;101445.66;4942711;28;20751;-76
2021/06/08 11:22:13;;;;;;;5.78;4.90;;;;;;;25.87;39.70;101445.66;4942073;28;20095;-78
2021/06/08 11:24:41;;;;;;;5.60;5.10;;;;;;;26.13;39.57;101451.88;4912473;29;20106;-77
2021/06/08 11:27:09;;;;;;;5.15;4.65;;;;;;;26.25;38.51;101448.28;4943410;29;20106;-78
2021/06/08 11:29:49;;;;;;;33.50;6.93;;;;;;;26.60;38.78;101448.41;4913625;29;20121;-78
2021/06/08 11:32:28;;;;;;;5.90;4.80;;;;;;;26.60;38.94;101453.81;4960017;28;20043;-77
2021/06/08 11:35:20;;;;;;;6.53;4.93;;;;;;;26.40;37.88;101447.16;4945604;28;20074;-78